sensor_id;sensor_type;location;lat;lon;timestamp;P1;durP1;ratioP1;P2;durP2;ratioP2
44925;SDS011;30662;51.210;7.656;2023-04-03T00:00:30;4.93;;;3.08;;
44925;SDS011;30662;51.210;7.656;2023-04-03T00:02:57;4.93;;;3.10;;
44925;SDS011;30662;51.210;7.656;2023-04-03T00:05:23;6.57;;;3.33;;
44925;SDS011;30662;51.210;7.656;2023-04-03T00:07:49;7.38;;;3.22;;
44925;SDS011;30662;51.210;7.656;2023-04-03T00:10:15;5.15;;;2.63;;
44925;SDS011;30662;51.210;7.656;2023-04-03T00:12:41;3.70;;;2.75;;
44925;SDS011;30662;51.210;7.656;2023-04-03T00:15:07;6.53;;;2.53;;
44925;SDS011;30662;51.210;7.656;2023-04-03T00:17:34;4.18;;;2.72;;
44925;SDS011;30662;51.210;7.656;2023-04-03T00:20:00;5.68;;;2.53;;
44925;SDS011;30662;51.210;7.656;2023-04-03T00:22:27;4.28;;;2.85;;
44925;SDS011;30662;51.210;7.656;2023-04-03T00:24:54;4.63;;;2.72;;
44925;SDS011;30662;51.210;7.656;2023-04-03T00:27:20;8.82;;;3.53;;
44925;SDS011;30662;51.210;7.656;2023-04-03T00:29:47;7.70;;;3.05;;
44925;SDS011;30662;51.210;7.656;2023-04-03T00:32:13;4.38;;;3.45;;
44925;SDS011;30662;51.210;7.656;2023-04-03T00:34:39;4.43;;;3.10;;
44925;SDS011;30662;51.210;7.656;2023-04-03T00:37:05;4.75;;;2.72;;
44925;SDS011;30662;51.210;7.656;2023-04-03T00:39:31;5.60;;;3.13;;
44925;SDS011;30662;51.210;7.656;2023-04-03T00:41:57;4.68;;;3.38;;
44925;SDS011;30662;51.210;7.656;2023-04-03T00:46:58;6.00;;;3.08;;
44925;SDS011;30662;51.210;7.656;2023-04-03T00:49:25;6.07;;;3.22;;
44925;SDS011;30662;51.210;7.656;2023-04-03T00:51:52;4.05;;;2.88;;
44925;SDS011;30662;51.210;7.656;2023-04-03T00:54:19;4.75;;;2.88;;
44925;SDS011;30662;51.210;7.656;2023-04-03T00:56:45;4.55;;;3.13;;
44925;SDS011;30662;51.210;7.656;2023-04-03T00:59:12;5.38;;;3.45;;
44925;SDS011;30662;51.210;7.656;2023-04-03T01:01:42;4.75;;;2.72;;
44925;SDS011;30662;51.210;7.656;2023-04-03T01:04:25;5.93;;;2.85;;
44925;SDS011;30662;51.210;7.656;2023-04-03T01:06:55;3.97;;;2.85;;
44925;SDS011;30662;51.210;7.656;2023-04-03T01:09:22;7.88;;;2.80;;
44925;SDS011;30662;51.210;7.656;2023-04-03T01:11:48;5.57;;;3.28;;
44925;SDS011;30662;51.210;7.656;2023-04-03T01:14:14;4.90;;;3.17;;
44925;SDS011;30662;51.210;7.656;2023-04-03T01:16:40;4.30;;;2.50;;
44925;SDS011;30662;51.210;7.656;2023-04-03T01:19:07;4.10;;;2.90;;
44925;SDS011;30662;51.210;7.656;2023-04-03T01:24:27;4.97;;;3.20;;
44925;SDS011;30662;51.210;7.656;2023-04-03T01:26:58;6.75;;;3.00;;
44925;SDS011;30662;51.210;7.656;2023-04-03T01:29:25;4.30;;;3.00;;
44925;SDS011;30662;51.210;7.656;2023-04-03T01:32:10;4.45;;;3.05;;
44925;SDS011;30662;51.210;7.656;2023-04-03T01:34:36;5.75;;;3.28;;
44925;SDS011;30662;51.210;7.656;2023-04-03T01:37:02;4.80;;;2.90;;
44925;SDS011;30662;51.210;7.656;2023-04-03T01:39:28;4.82;;;2.85;;
44925;SDS011;30662;51.210;7.656;2023-04-03T01:41:53;7.13;;;3.30;;
44925;SDS011;30662;51.210;7.656;2023-04-03T01:44:20;5.05;;;3.15;;
44925;SDS011;30662;51.210;7.656;2023-04-03T01:46:46;4.70;;;3.22;;
44925;SDS011;30662;51.210;7.656;2023-04-03T01:49:12;5.93;;;3.22;;
44925;SDS011;30662;51.210;7.656;2023-04-03T01:51:38;6.43;;;3.22;;
44925;SDS011;30662;51.210;7.656;2023-04-03T01:54:04;5.78;;;2.78;;
44925;SDS011;30662;51.210;7.656;2023-04-03T01:56:30;6.20;;;3.35;;
44925;SDS011;30662;51.210;7.656;2023-04-03T01:58:56;5.78;;;3.30;;
44925;SDS011;30662;51.210;7.656;2023-04-03T02:01:22;5.20;;;2.78;;
44925;SDS011;30662;51.210;7.656;2023-04-03T02:03:48;5.70;;;3.58;;
44925;SDS011;30662;51.210;7.656;2023-04-03T02:06:15;5.10;;;2.38;;
44925;SDS011;30662;51.210;7.656;2023-04-03T02:08:40;5.93;;;2.35;;
44925;SDS011;30662;51.210;7.656;2023-04-03T02:11:07;5.53;;;2.85;;
44925;SDS011;30662;51.210;7.656;2023-04-03T02:13:33;4.97;;;3.05;;
44925;SDS011;30662;51.210;7.656;2023-04-03T02:15:58;3.88;;;2.30;;
44925;SDS011;30662;51.210;7.656;2023-04-03T02:18:24;3.67;;;2.97;;
44925;SDS011;30662;51.210;7.656;2023-04-03T02:20:50;4.93;;;2.92;;
44925;SDS011;30662;51.210;7.656;2023-04-03T02:23:16;8.82;;;2.70;;
44925;SDS011;30662;51.210;7.656;2023-04-03T02:25:42;6.03;;;2.63;;
44925;SDS011;30662;51.210;7.656;2023-04-03T02:28:08;5.07;;;3.05;;
44925;SDS011;30662;51.210;7.656;2023-04-03T02:30:33;3.70;;;2.60;;
44925;SDS011;30662;51.210;7.656;2023-04-03T02:33:00;4.47;;;2.78;;
44925;SDS011;30662;51.210;7.656;2023-04-03T02:35:26;5.40;;;3.70;;
44925;SDS011;30662;51.210;7.656;2023-04-03T02:37:52;5.75;;;2.50;;
44925;SDS011;30662;51.210;7.656;2023-04-03T02:40:18;4.15;;;2.28;;
44925;SDS011;30662;51.210;7.656;2023-04-03T02:42:44;5.25;;;2.80;;
44925;SDS011;30662;51.210;7.656;2023-04-03T02:45:10;6.90;;;2.92;;
44925;SDS011;30662;51.210;7.656;2023-04-03T02:47:36;4.85;;;2.70;;
44925;SDS011;30662;51.210;7.656;2023-04-03T02:50:02;3.97;;;2.70;;
44925;SDS011;30662;51.210;7.656;2023-04-03T02:52:28;4.65;;;2.78;;
44925;SDS011;30662;51.210;7.656;2023-04-03T02:54:54;4.07;;;2.72;;
44925;SDS011;30662;51.210;7.656;2023-04-03T02:57:20;6.28;;;2.70;;
44925;SDS011;30662;51.210;7.656;2023-04-03T02:59:46;4.43;;;2.70;;
44925;SDS011;30662;51.210;7.656;2023-04-03T03:02:11;2.67;;;2.20;;
44925;SDS011;30662;51.210;7.656;2023-04-03T03:04:37;4.97;;;2.72;;
44925;SDS011;30662;51.210;7.656;2023-04-03T03:07:03;4.90;;;2.80;;
44925;SDS011;30662;51.210;7.656;2023-04-03T03:09:29;6.50;;;2.60;;
44925;SDS011;30662;51.210;7.656;2023-04-03T03:11:56;4.57;;;2.90;;
44925;SDS011;30662;51.210;7.656;2023-04-03T03:14:22;4.55;;;2.70;;
44925;SDS011;30662;51.210;7.656;2023-04-03T03:16:48;5.07;;;3.13;;
44925;SDS011;30662;51.210;7.656;2023-04-03T03:19:14;4.82;;;2.78;;
44925;SDS011;30662;51.210;7.656;2023-04-03T03:21:41;3.20;;;2.42;;
44925;SDS011;30662;51.210;7.656;2023-04-03T03:24:07;6.72;;;2.80;;
44925;SDS011;30662;51.210;7.656;2023-04-03T03:26:33;3.80;;;2.47;;
44925;SDS011;30662;51.210;7.656;2023-04-03T03:28:59;6.93;;;2.70;;
44925;SDS011;30662;51.210;7.656;2023-04-03T03:31:25;6.13;;;2.97;;
44925;SDS011;30662;51.210;7.656;2023-04-03T03:33:51;4.78;;;3.28;;
44925;SDS011;30662;51.210;7.656;2023-04-03T03:36:17;9.77;;;3.67;;
44925;SDS011;30662;51.210;7.656;2023-04-03T03:38:43;6.95;;;3.38;;
44925;SDS011;30662;51.210;7.656;2023-04-03T03:41:08;5.18;;;2.80;;
44925;SDS011;30662;51.210;7.656;2023-04-03T03:43:35;7.22;;;2.42;;
44925;SDS011;30662;51.210;7.656;2023-04-03T03:46:00;3.38;;;2.40;;
44925;SDS011;30662;51.210;7.656;2023-04-03T03:48:26;4.88;;;2.33;;
44925;SDS011;30662;51.210;7.656;2023-04-03T03:50:52;5.85;;;2.55;;
44925;SDS011;30662;51.210;7.656;2023-04-03T03:53:18;4.32;;;2.80;;
44925;SDS011;30662;51.210;7.656;2023-04-03T03:55:44;6.72;;;2.90;;
44925;SDS011;30662;51.210;7.656;2023-04-03T03:58:10;7.55;;;2.90;;
44925;SDS011;30662;51.210;7.656;2023-04-03T04:00:36;6.35;;;3.67;;
44925;SDS011;30662;51.210;7.656;2023-04-03T04:03:02;6.10;;;2.90;;
44925;SDS011;30662;51.210;7.656;2023-04-03T04:05:28;5.15;;;3.15;;
44925;SDS011;30662;51.210;7.656;2023-04-03T04:07:54;4.63;;;2.85;;
44925;SDS011;30662;51.210;7.656;2023-04-03T04:10:20;5.10;;;2.90;;
44925;SDS011;30662;51.210;7.656;2023-04-03T04:12:46;6.70;;;3.25;;
44925;SDS011;30662;51.210;7.656;2023-04-03T04:15:14;5.18;;;3.25;;
44925;SDS011;30662;51.210;7.656;2023-04-03T04:17:40;7.15;;;3.05;;
44925;SDS011;30662;51.210;7.656;2023-04-03T04:20:06;8.30;;;3.50;;
44925;SDS011;30662;51.210;7.656;2023-04-03T04:22:32;6.65;;;2.85;;
44925;SDS011;30662;51.210;7.656;2023-04-03T04:24:58;4.68;;;2.60;;
44925;SDS011;30662;51.210;7.656;2023-04-03T04:27:24;6.95;;;2.88;;
44925;SDS011;30662;51.210;7.656;2023-04-03T04:29:50;8.35;;;2.80;;
44925;SDS011;30662;51.210;7.656;2023-04-03T04:32:15;5.70;;;2.83;;
44925;SDS011;30662;51.210;7.656;2023-04-03T04:34:41;6.70;;;2.90;;
44925;SDS011;30662;51.210;7.656;2023-04-03T04:37:07;9.02;;;3.13;;
44925;SDS011;30662;51.210;7.656;2023-04-03T04:39:34;9.63;;;3.13;;
44925;SDS011;30662;51.210;7.656;2023-04-03T04:42:00;7.28;;;2.67;;
44925;SDS011;30662;51.210;7.656;2023-04-03T04:44:26;5.68;;;3.30;;
44925;SDS011;30662;51.210;7.656;2023-04-03T04:46:51;7.65;;;3.03;;
44925;SDS011;30662;51.210;7.656;2023-04-03T04:49:17;7.53;;;3.70;;
44925;SDS011;30662;51.210;7.656;2023-04-03T04:51:43;6.93;;;3.25;;
44925;SDS011;30662;51.210;7.656;2023-04-03T04:54:17;5.78;;;2.97;;
44925;SDS011;30662;51.210;7.656;2023-04-03T04:56:43;4.15;;;3.28;;
44925;SDS011;30662;51.210;7.656;2023-04-03T04:59:09;4.40;;;2.85;;
44925;SDS011;30662;51.210;7.656;2023-04-03T05:01:35;7.80;;;3.42;;
44925;SDS011;30662;51.210;7.656;2023-04-03T05:04:01;4.10;;;3.47;;
44925;SDS011;30662;51.210;7.656;2023-04-03T05:06:27;6.57;;;3.10;;
44925;SDS011;30662;51.210;7.656;2023-04-03T05:08:55;5.15;;;2.92;;
44925;SDS011;30662;51.210;7.656;2023-04-03T05:11:21;3.45;;;2.40;;
44925;SDS011;30662;51.210;7.656;2023-04-03T05:13:50;4.70;;;2.80;;
44925;SDS011;30662;51.210;7.656;2023-04-03T05:16:16;4.90;;;3.00;;
44925;SDS011;30662;51.210;7.656;2023-04-03T05:18:42;4.30;;;2.60;;
44925;SDS011;30662;51.210;7.656;2023-04-03T05:21:08;8.57;;;3.10;;
44925;SDS011;30662;51.210;7.656;2023-04-03T05:23:34;6.72;;;3.40;;
44925;SDS011;30662;51.210;7.656;2023-04-03T05:26:00;8.95;;;3.03;;
44925;SDS011;30662;51.210;7.656;2023-04-03T05:28:26;5.72;;;3.13;;
44925;SDS011;30662;51.210;7.656;2023-04-03T05:30:55;7.90;;;2.60;;
44925;SDS011;30662;51.210;7.656;2023-04-03T05:33:23;7.10;;;2.70;;
44925;SDS011;30662;51.210;7.656;2023-04-03T05:35:50;7.30;;;2.83;;
44925;SDS011;30662;51.210;7.656;2023-04-03T05:38:16;4.45;;;2.80;;
44925;SDS011;30662;51.210;7.656;2023-04-03T05:40:42;11.48;;;3.83;;
44925;SDS011;30662;51.210;7.656;2023-04-03T05:43:08;11.40;;;3.53;;
44925;SDS011;30662;51.210;7.656;2023-04-03T05:45:33;7.72;;;4.30;;
44925;SDS011;30662;51.210;7.656;2023-04-03T05:48:00;8.90;;;3.33;;
44925;SDS011;30662;51.210;7.656;2023-04-03T05:50:25;4.85;;;2.95;;
44925;SDS011;30662;51.210;7.656;2023-04-03T05:52:52;6.07;;;3.20;;
44925;SDS011;30662;51.210;7.656;2023-04-03T05:55:22;6.55;;;3.03;;
44925;SDS011;30662;51.210;7.656;2023-04-03T05:57:47;6.03;;;2.88;;
44925;SDS011;30662;51.210;7.656;2023-04-03T06:00:13;5.88;;;2.83;;
44925;SDS011;30662;51.210;7.656;2023-04-03T06:02:41;10.85;;;3.83;;
44925;SDS011;30662;51.210;7.656;2023-04-03T06:05:08;6.57;;;3.20;;
44925;SDS011;30662;51.210;7.656;2023-04-03T06:07:35;6.35;;;2.85;;
44925;SDS011;30662;51.210;7.656;2023-04-03T06:10:01;8.20;;;3.30;;
44925;SDS011;30662;51.210;7.656;2023-04-03T06:12:27;13.25;;;4.03;;
44925;SDS011;30662;51.210;7.656;2023-04-03T06:14:56;6.22;;;3.38;;
44925;SDS011;30662;51.210;7.656;2023-04-03T06:17:22;5.35;;;2.67;;
44925;SDS011;30662;51.210;7.656;2023-04-03T06:19:49;4.75;;;2.95;;
44925;SDS011;30662;51.210;7.656;2023-04-03T06:22:15;7.80;;;3.35;;
44925;SDS011;30662;51.210;7.656;2023-04-03T06:24:41;7.55;;;3.30;;
44925;SDS011;30662;51.210;7.656;2023-04-03T06:27:07;6.57;;;3.38;;
44925;SDS011;30662;51.210;7.656;2023-04-03T06:29:33;9.45;;;3.50;;
44925;SDS011;30662;51.210;7.656;2023-04-03T06:31:59;6.07;;;2.92;;
44925;SDS011;30662;51.210;7.656;2023-04-03T06:34:24;7.72;;;2.92;;
44925;SDS011;30662;51.210;7.656;2023-04-03T06:36:51;11.77;;;2.80;;
44925;SDS011;30662;51.210;7.656;2023-04-03T06:39:20;5.18;;;2.55;;
44925;SDS011;30662;51.210;7.656;2023-04-03T06:41:48;6.25;;;3.20;;
44925;SDS011;30662;51.210;7.656;2023-04-03T06:44:14;7.65;;;3.38;;
44925;SDS011;30662;51.210;7.656;2023-04-03T06:46:41;5.40;;;3.88;;
44925;SDS011;30662;51.210;7.656;2023-04-03T06:49:09;7.93;;;3.78;;
44925;SDS011;30662;51.210;7.656;2023-04-03T06:51:35;4.38;;;2.70;;
44925;SDS011;30662;51.210;7.656;2023-04-03T06:54:02;6.43;;;2.67;;
44925;SDS011;30662;51.210;7.656;2023-04-03T06:56:29;6.70;;;2.40;;
44925;SDS011;30662;51.210;7.656;2023-04-03T06:58:56;6.28;;;2.55;;
44925;SDS011;30662;51.210;7.656;2023-04-03T07:01:25;6.78;;;3.08;;
44925;SDS011;30662;51.210;7.656;2023-04-03T07:03:55;6.28;;;2.95;;
44925;SDS011;30662;51.210;7.656;2023-04-03T07:06:21;10.20;;;2.90;;
44925;SDS011;30662;51.210;7.656;2023-04-03T07:08:48;4.82;;;2.60;;
44925;SDS011;30662;51.210;7.656;2023-04-03T07:11:14;7.03;;;3.38;;
44925;SDS011;30662;51.210;7.656;2023-04-03T07:13:41;10.20;;;3.20;;
44925;SDS011;30662;51.210;7.656;2023-04-03T07:16:07;6.40;;;3.38;;
44925;SDS011;30662;51.210;7.656;2023-04-03T07:18:33;10.52;;;3.20;;
44925;SDS011;30662;51.210;7.656;2023-04-03T07:21:00;5.22;;;2.83;;
44925;SDS011;30662;51.210;7.656;2023-04-03T07:23:26;6.03;;;2.90;;
44925;SDS011;30662;51.210;7.656;2023-04-03T07:25:53;6.47;;;3.03;;
44925;SDS011;30662;51.210;7.656;2023-04-03T07:28:19;6.95;;;3.47;;
44925;SDS011;30662;51.210;7.656;2023-04-03T07:30:46;9.13;;;2.90;;
44925;SDS011;30662;51.210;7.656;2023-04-03T07:33:21;6.15;;;2.90;;
44925;SDS011;30662;51.210;7.656;2023-04-03T07:35:48;6.80;;;2.80;;
44925;SDS011;30662;51.210;7.656;2023-04-03T07:38:15;7.13;;;2.80;;
44925;SDS011;30662;51.210;7.656;2023-04-03T07:40:45;6.85;;;2.97;;
44925;SDS011;30662;51.210;7.656;2023-04-03T07:43:13;4.85;;;3.10;;
44925;SDS011;30662;51.210;7.656;2023-04-03T07:45:39;5.95;;;3.00;;
44925;SDS011;30662;51.210;7.656;2023-04-03T07:48:05;7.22;;;2.95;;
44925;SDS011;30662;51.210;7.656;2023-04-03T07:50:31;7.03;;;2.55;;
44925;SDS011;30662;51.210;7.656;2023-04-03T07:52:58;4.47;;;2.42;;
44925;SDS011;30662;51.210;7.656;2023-04-03T07:55:24;6.75;;;2.88;;
44925;SDS011;30662;51.210;7.656;2023-04-03T07:57:50;6.65;;;2.88;;
44925;SDS011;30662;51.210;7.656;2023-04-03T08:00:17;4.75;;;2.33;;
44925;SDS011;30662;51.210;7.656;2023-04-03T08:02:43;4.13;;;2.55;;
44925;SDS011;30662;51.210;7.656;2023-04-03T08:05:10;7.55;;;3.03;;
44925;SDS011;30662;51.210;7.656;2023-04-03T08:07:37;5.68;;;3.05;;
44925;SDS011;30662;51.210;7.656;2023-04-03T08:10:03;6.63;;;2.58;;
44925;SDS011;30662;51.210;7.656;2023-04-03T08:12:30;6.90;;;3.00;;
44925;SDS011;30662;51.210;7.656;2023-04-03T08:14:59;5.63;;;3.30;;
44925;SDS011;30662;51.210;7.656;2023-04-03T08:17:26;6.38;;;3.03;;
44925;SDS011;30662;51.210;7.656;2023-04-03T08:19:52;10.00;;;2.65;;
44925;SDS011;30662;51.210;7.656;2023-04-03T08:22:18;5.22;;;2.58;;
44925;SDS011;30662;51.210;7.656;2023-04-03T08:24:44;5.95;;;2.53;;
44925;SDS011;30662;51.210;7.656;2023-04-03T08:27:24;5.10;;;2.17;;
44925;SDS011;30662;51.210;7.656;2023-04-03T08:29:50;3.50;;;1.77;;
44925;SDS011;30662;51.210;7.656;2023-04-03T08:32:16;2.97;;;1.83;;
44925;SDS011;30662;51.210;7.656;2023-04-03T08:34:43;5.70;;;2.00;;
44925;SDS011;30662;51.210;7.656;2023-04-03T08:37:09;3.30;;;1.73;;
44925;SDS011;30662;51.210;7.656;2023-04-03T08:39:35;6.07;;;2.10;;
44925;SDS011;30662;51.210;7.656;2023-04-03T08:42:02;6.75;;;2.20;;
44925;SDS011;30662;51.210;7.656;2023-04-03T08:47:33;4.22;;;2.17;;
44925;SDS011;30662;51.210;7.656;2023-04-03T08:50:17;7.50;;;1.80;;
44925;SDS011;30662;51.210;7.656;2023-04-03T08:53:04;4.22;;;2.10;;
44925;SDS011;30662;51.210;7.656;2023-04-03T08:55:40;5.32;;;2.00;;
44925;SDS011;30662;51.210;7.656;2023-04-03T08:58:12;4.95;;;1.50;;
44925;SDS011;30662;51.210;7.656;2023-04-03T09:00:46;3.53;;;1.52;;
44925;SDS011;30662;51.210;7.656;2023-04-03T09:03:16;3.33;;;2.00;;
44925;SDS011;30662;51.210;7.656;2023-04-03T09:05:50;4.03;;;1.75;;
44925;SDS011;30662;51.210;7.656;2023-04-03T09:08:24;3.17;;;1.60;;
44925;SDS011;30662;51.210;7.656;2023-04-03T09:19:08;2.45;;;1.33;;
44925;SDS011;30662;51.210;7.656;2023-04-03T09:21:39;3.75;;;1.27;;
44925;SDS011;30662;51.210;7.656;2023-04-03T09:24:09;3.63;;;1.20;;
44925;SDS011;30662;51.210;7.656;2023-04-03T09:26:42;2.92;;;1.10;;
44925;SDS011;30662;51.210;7.656;2023-04-03T09:29:17;3.70;;;1.65;;
44925;SDS011;30662;51.210;7.656;2023-04-03T09:31:47;1.20;;;0.80;;
44925;SDS011;30662;51.210;7.656;2023-04-03T09:34:49;1.30;;;0.82;;
44925;SDS011;30662;51.210;7.656;2023-04-03T09:37:08;3.13;;;1.20;;
44925;SDS011;30662;51.210;7.656;2023-04-03T09:39:51;3.38;;;1.15;;
44925;SDS011;30662;51.210;7.656;2023-04-03T09:42:22;1.42;;;0.80;;
44925;SDS011;30662;51.210;7.656;2023-04-03T09:44:53;3.33;;;1.20;;
44925;SDS011;30662;51.210;7.656;2023-04-03T09:47:24;3.33;;;1.50;;
44925;SDS011;30662;51.210;7.656;2023-04-03T09:52:44;3.40;;;1.10;;
44925;SDS011;30662;51.210;7.656;2023-04-03T09:57:40;2.10;;;1.00;;
44925;SDS011;30662;51.210;7.656;2023-04-03T10:00:10;2.65;;;1.05;;
44925;SDS011;30662;51.210;7.656;2023-04-03T10:02:49;1.92;;;0.93;;
44925;SDS011;30662;51.210;7.656;2023-04-03T10:05:26;2.08;;;1.00;;
44925;SDS011;30662;51.210;7.656;2023-04-03T10:10:40;1.88;;;1.00;;
44925;SDS011;30662;51.210;7.656;2023-04-03T10:13:15;0.68;;;0.65;;
44925;SDS011;30662;51.210;7.656;2023-04-03T10:21:15;3.80;;;1.00;;
44925;SDS011;30662;51.210;7.656;2023-04-03T10:24:02;1.77;;;0.70;;
44925;SDS011;30662;51.210;7.656;2023-04-03T10:26:38;1.20;;;0.90;;
44925;SDS011;30662;51.210;7.656;2023-04-03T10:34:44;4.28;;;0.93;;
44925;SDS011;30662;51.210;7.656;2023-04-03T10:37:30;3.60;;;1.67;;
44925;SDS011;30662;51.210;7.656;2023-04-03T10:40:05;2.92;;;1.23;;
44925;SDS011;30662;51.210;7.656;2023-04-03T10:43:00;1.73;;;0.73;;
44925;SDS011;30662;51.210;7.656;2023-04-03T10:45:40;1.42;;;0.80;;
44925;SDS011;30662;51.210;7.656;2023-04-03T10:50:58;1.80;;;0.80;;
44925;SDS011;30662;51.210;7.656;2023-04-03T10:54:18;1.73;;;0.95;;
44925;SDS011;30662;51.210;7.656;2023-04-03T10:59:12;2.25;;;0.82;;
44925;SDS011;30662;51.210;7.656;2023-04-03T11:01:40;1.77;;;0.85;;
44925;SDS011;30662;51.210;7.656;2023-04-03T11:04:09;2.72;;;1.20;;
44925;SDS011;30662;51.210;7.656;2023-04-03T11:06:43;3.22;;;1.17;;
44925;SDS011;30662;51.210;7.656;2023-04-03T11:09:25;2.92;;;1.10;;
44925;SDS011;30662;51.210;7.656;2023-04-03T11:12:03;2.17;;;1.10;;
44925;SDS011;30662;51.210;7.656;2023-04-03T11:14:36;1.23;;;0.75;;
44925;SDS011;30662;51.210;7.656;2023-04-03T11:22:47;1.48;;;0.90;;
44925;SDS011;30662;51.210;7.656;2023-04-03T11:25:23;1.23;;;0.82;;
44925;SDS011;30662;51.210;7.656;2023-04-03T11:27:54;2.28;;;0.90;;
44925;SDS011;30662;51.210;7.656;2023-04-03T11:30:23;2.33;;;0.95;;
44925;SDS011;30662;51.210;7.656;2023-04-03T11:35:28;3.03;;;1.13;;
44925;SDS011;30662;51.210;7.656;2023-04-03T11:37:56;3.17;;;0.80;;
44925;SDS011;30662;51.210;7.656;2023-04-03T11:40:26;4.72;;;1.08;;
44925;SDS011;30662;51.210;7.656;2023-04-03T11:50:54;2.85;;;1.10;;
44925;SDS011;30662;51.210;7.656;2023-04-03T11:53:28;2.83;;;0.93;;
44925;SDS011;30662;51.210;7.656;2023-04-03T11:55:59;3.97;;;1.05;;
44925;SDS011;30662;51.210;7.656;2023-04-03T11:58:33;6.18;;;1.10;;
44925;SDS011;30662;51.210;7.656;2023-04-03T12:03:56;1.15;;;0.82;;
44925;SDS011;30662;51.210;7.656;2023-04-03T12:08:58;3.40;;;1.33;;
44925;SDS011;30662;51.210;7.656;2023-04-03T12:11:26;2.65;;;1.20;;
44925;SDS011;30662;51.210;7.656;2023-04-03T12:18:59;5.93;;;1.38;;
44925;SDS011;30662;51.210;7.656;2023-04-03T12:29:23;3.50;;;1.33;;
44925;SDS011;30662;51.210;7.656;2023-04-03T12:43:18;5.10;;;1.10;;
44925;SDS011;30662;51.210;7.656;2023-04-03T12:48:26;1.70;;;0.85;;
44925;SDS011;30662;51.210;7.656;2023-04-03T12:50:55;3.17;;;1.67;;
44925;SDS011;30662;51.210;7.656;2023-04-03T12:53:33;4.05;;;1.08;;
44925;SDS011;30662;51.210;7.656;2023-04-03T12:56:21;3.53;;;1.40;;
44925;SDS011;30662;51.210;7.656;2023-04-03T12:58:50;3.35;;;1.10;;
44925;SDS011;30662;51.210;7.656;2023-04-03T13:01:20;2.13;;;1.10;;
44925;SDS011;30662;51.210;7.656;2023-04-03T13:03:50;3.25;;;0.90;;
44925;SDS011;30662;51.210;7.656;2023-04-03T13:06:23;1.23;;;1.00;;
44925;SDS011;30662;51.210;7.656;2023-04-03T13:08:54;3.67;;;1.13;;
44925;SDS011;30662;51.210;7.656;2023-04-03T13:11:22;3.35;;;1.00;;
44925;SDS011;30662;51.210;7.656;2023-04-03T13:13:59;1.42;;;0.95;;
44925;SDS011;30662;51.210;7.656;2023-04-03T13:16:31;1.75;;;1.08;;
44925;SDS011;30662;51.210;7.656;2023-04-03T13:18:59;3.65;;;1.00;;
44925;SDS011;30662;51.210;7.656;2023-04-03T13:23:55;2.13;;;1.05;;
44925;SDS011;30662;51.210;7.656;2023-04-03T13:26:37;3.35;;;1.58;;
44925;SDS011;30662;51.210;7.656;2023-04-03T13:29:05;2.97;;;1.27;;
44925;SDS011;30662;51.210;7.656;2023-04-03T13:31:37;3.60;;;0.80;;
44925;SDS011;30662;51.210;7.656;2023-04-03T13:34:12;3.35;;;1.92;;
44925;SDS011;30662;51.210;7.656;2023-04-03T13:36:54;2.38;;;1.15;;
44925;SDS011;30662;51.210;7.656;2023-04-03T13:39:30;1.98;;;1.00;;
44925;SDS011;30662;51.210;7.656;2023-04-03T13:41:58;2.38;;;1.35;;
44925;SDS011;30662;51.210;7.656;2023-04-03T13:44:30;4.63;;;1.50;;
44925;SDS011;30662;51.210;7.656;2023-04-03T13:47:20;2.80;;;1.60;;
44925;SDS011;30662;51.210;7.656;2023-04-03T13:50:00;2.25;;;0.98;;
44925;SDS011;30662;51.210;7.656;2023-04-03T13:52:42;4.35;;;1.73;;
44925;SDS011;30662;51.210;7.656;2023-04-03T13:58:02;3.42;;;1.45;;
44925;SDS011;30662;51.210;7.656;2023-04-03T14:01:00;2.78;;;1.45;;
44925;SDS011;30662;51.210;7.656;2023-04-03T14:03:56;4.45;;;1.85;;
44925;SDS011;30662;51.210;7.656;2023-04-03T14:06:25;1.80;;;1.00;;
44925;SDS011;30662;51.210;7.656;2023-04-03T14:08:52;2.58;;;1.27;;
44925;SDS011;30662;51.210;7.656;2023-04-03T14:11:20;3.67;;;1.25;;
44925;SDS011;30662;51.210;7.656;2023-04-03T14:13:55;2.80;;;1.40;;
44925;SDS011;30662;51.210;7.656;2023-04-03T14:16:26;1.92;;;0.95;;
44925;SDS011;30662;51.210;7.656;2023-04-03T14:18:55;2.72;;;1.00;;
44925;SDS011;30662;51.210;7.656;2023-04-03T14:21:21;4.22;;;1.17;;
44925;SDS011;30662;51.210;7.656;2023-04-03T14:23:47;1.73;;;0.98;;
44925;SDS011;30662;51.210;7.656;2023-04-03T14:26:15;1.25;;;1.10;;
44925;SDS011;30662;51.210;7.656;2023-04-03T14:28:50;4.13;;;1.42;;
44925;SDS011;30662;51.210;7.656;2023-04-03T14:31:19;3.55;;;1.13;;
44925;SDS011;30662;51.210;7.656;2023-04-03T14:33:46;3.70;;;1.17;;
44925;SDS011;30662;51.210;7.656;2023-04-03T14:36:31;3.88;;;1.27;;
44925;SDS011;30662;51.210;7.656;2023-04-03T14:38:58;4.60;;;1.92;;
44925;SDS011;30662;51.210;7.656;2023-04-03T14:41:26;1.48;;;0.80;;
44925;SDS011;30662;51.210;7.656;2023-04-03T14:43:52;2.35;;;1.25;;
44925;SDS011;30662;51.210;7.656;2023-04-03T14:46:24;3.22;;;1.60;;
44925;SDS011;30662;51.210;7.656;2023-04-03T14:49:18;2.47;;;1.23;;
44925;SDS011;30662;51.210;7.656;2023-04-03T14:51:46;4.07;;;1.48;;
44925;SDS011;30662;51.210;7.656;2023-04-03T14:54:14;2.58;;;1.40;;
44925;SDS011;30662;51.210;7.656;2023-04-03T14:56:44;3.10;;;1.02;;
44925;SDS011;30662;51.210;7.656;2023-04-03T14:59:11;2.15;;;0.95;;
44925;SDS011;30662;51.210;7.656;2023-04-03T15:01:38;2.95;;;1.20;;
44925;SDS011;30662;51.210;7.656;2023-04-03T15:04:08;3.10;;;1.42;;
44925;SDS011;30662;51.210;7.656;2023-04-03T15:06:37;2.92;;;1.23;;
44925;SDS011;30662;51.210;7.656;2023-04-03T15:09:03;2.58;;;1.40;;
44925;SDS011;30662;51.210;7.656;2023-04-03T15:11:29;4.28;;;1.38;;
44925;SDS011;30662;51.210;7.656;2023-04-03T15:13:55;2.50;;;1.05;;
44925;SDS011;30662;51.210;7.656;2023-04-03T15:16:28;3.50;;;1.30;;
44925;SDS011;30662;51.210;7.656;2023-04-03T15:18:55;5.25;;;1.10;;
44925;SDS011;30662;51.210;7.656;2023-04-03T15:21:21;2.28;;;1.20;;
44925;SDS011;30662;51.210;7.656;2023-04-03T15:23:47;4.22;;;1.02;;
44925;SDS011;30662;51.210;7.656;2023-04-03T15:26:13;2.15;;;1.00;;
44925;SDS011;30662;51.210;7.656;2023-04-03T15:28:39;3.50;;;2.33;;
44925;SDS011;30662;51.210;7.656;2023-04-03T15:31:07;2.50;;;1.40;;
44925;SDS011;30662;51.210;7.656;2023-04-03T15:33:34;2.15;;;1.05;;
44925;SDS011;30662;51.210;7.656;2023-04-03T15:36:01;5.30;;;1.20;;
44925;SDS011;30662;51.210;7.656;2023-04-03T15:38:33;3.40;;;1.38;;
44925;SDS011;30662;51.210;7.656;2023-04-03T15:40:59;3.55;;;1.35;;
44925;SDS011;30662;51.210;7.656;2023-04-03T15:43:25;2.10;;;1.20;;
44925;SDS011;30662;51.210;7.656;2023-04-03T15:45:51;2.65;;;1.25;;
44925;SDS011;30662;51.210;7.656;2023-04-03T15:48:18;2.58;;;1.10;;
44925;SDS011;30662;51.210;7.656;2023-04-03T15:50:44;3.72;;;1.25;;
44925;SDS011;30662;51.210;7.656;2023-04-03T15:53:10;3.45;;;1.77;;
44925;SDS011;30662;51.210;7.656;2023-04-03T15:55:36;5.15;;;1.17;;
44925;SDS011;30662;51.210;7.656;2023-04-03T15:58:03;3.58;;;1.30;;
44925;SDS011;30662;51.210;7.656;2023-04-03T16:00:30;3.83;;;1.90;;
44925;SDS011;30662;51.210;7.656;2023-04-03T16:03:02;7.22;;;1.60;;
44925;SDS011;30662;51.210;7.656;2023-04-03T16:05:31;2.53;;;1.17;;
44925;SDS011;30662;51.210;7.656;2023-04-03T16:07:59;7.22;;;1.63;;
44925;SDS011;30662;51.210;7.656;2023-04-03T16:10:26;2.58;;;1.13;;
44925;SDS011;30662;51.210;7.656;2023-04-03T16:12:52;4.90;;;1.55;;
44925;SDS011;30662;51.210;7.656;2023-04-03T16:15:18;2.78;;;1.50;;
44925;SDS011;30662;51.210;7.656;2023-04-03T16:17:44;4.05;;;2.28;;
44925;SDS011;30662;51.210;7.656;2023-04-03T16:20:11;3.47;;;1.90;;
44925;SDS011;30662;51.210;7.656;2023-04-03T16:22:38;2.53;;;1.40;;
44925;SDS011;30662;51.210;7.656;2023-04-03T16:25:05;7.22;;;2.45;;
44925;SDS011;30662;51.210;7.656;2023-04-03T16:27:33;6.15;;;1.98;;
44925;SDS011;30662;51.210;7.656;2023-04-03T16:29:59;2.40;;;1.33;;
44925;SDS011;30662;51.210;7.656;2023-04-03T16:32:26;3.83;;;1.75;;